createdAt,value
2022-10-10T00:00:47.484Z,4.27
2022-10-10T00:03:19.874Z,1.93
2022-10-10T00:05:51.597Z,1.60
2022-10-10T00:08:23.316Z,4.33
2022-10-10T00:10:55.391Z,4.70
2022-10-10T00:13:27.303Z,3.93
2022-10-10T00:15:59.449Z,5.37
2022-10-10T00:18:32.439Z,2.57
2022-10-10T00:21:04.894Z,1.73
2022-10-10T00:23:37.121Z,3.97
2022-10-10T00:26:09.793Z,3.67
2022-10-10T00:28:42.327Z,3.10
2022-10-10T00:31:14.148Z,2.57
2022-10-10T00:33:46.006Z,1.77
2022-10-10T00:36:20.424Z,1.90
2022-10-10T00:38:52.343Z,3.63
2022-10-10T00:41:26.798Z,4.80
2022-10-10T00:44:11.092Z,2.70
2022-10-10T00:46:43.339Z,6.33
2022-10-10T00:49:21.658Z,2.33
2022-10-10T00:51:57.561Z,2.63
2022-10-10T00:54:32.656Z,2.10
2022-10-10T00:57:08.773Z,1.87
2022-10-10T00:59:42.806Z,1.70
2022-10-10T01:02:14.554Z,2.43
2022-10-10T01:04:46.386Z,1.70
2022-10-10T01:07:27.745Z,5.43
2022-10-10T01:10:07.153Z,2.00
2022-10-10T01:13:00.189Z,2.47
2022-10-10T01:15:47.552Z,2.00
2022-10-10T01:18:36.263Z,5.47
2022-10-10T01:21:48.977Z,2.03
2022-10-10T01:24:40.477Z,2.33
2022-10-10T01:27:33.485Z,5.90
2022-10-10T01:30:09.617Z,1.93
2022-10-10T01:32:51.025Z,3.77
2022-10-10T01:35:50.213Z,2.73
2022-10-10T01:38:43.533Z,1.60
2022-10-10T01:41:21.585Z,2.83
2022-10-10T01:43:58.425Z,2.73
2022-10-10T01:46:32.494Z,1.90
2022-10-10T01:49:04.538Z,3.33
2022-10-10T01:51:54.855Z,1.90
2022-10-10T01:54:58.867Z,3.13
2022-10-10T01:57:59.204Z,3.87
2022-10-10T02:00:40.981Z,2.57
2022-10-10T02:03:27.049Z,6.50
2022-10-10T02:06:24.482Z,3.47
2022-10-10T02:09:03.141Z,5.60
2022-10-10T02:11:38.073Z,1.70
2022-10-10T02:14:17.253Z,2.17
2022-10-10T02:16:53.021Z,4.07
2022-10-10T02:19:27.112Z,1.53
2022-10-10T02:22:00.384Z,1.93
2022-10-10T02:24:32.170Z,2.03
2022-10-10T02:27:08.923Z,1.53
2022-10-10T02:29:43.484Z,2.03
2022-10-10T02:32:26.883Z,5.67
2022-10-10T02:35:11.756Z,2.90
2022-10-10T02:37:45.492Z,3.57
2022-10-10T02:40:23.143Z,2.30
2022-10-10T02:42:57.173Z,1.67
2022-10-10T02:45:30.445Z,3.47
2022-10-10T02:48:02.455Z,3.57
2022-10-10T02:50:34.944Z,2.87
2022-10-10T02:53:06.674Z,6.17
2022-10-10T02:55:38.397Z,2.90
2022-10-10T02:58:10.118Z,2.27
2022-10-10T03:00:41.845Z,4.37
2022-10-10T03:03:13.566Z,2.10
2022-10-10T03:05:47.022Z,2.67
2022-10-10T03:08:18.890Z,2.63
2022-10-10T03:10:58.303Z,2.97
2022-10-10T03:13:30.063Z,3.57
2022-10-10T03:16:02.204Z,2.70
2022-10-10T03:18:34.080Z,2.17
2022-10-10T03:21:06.089Z,1.90
2022-10-10T03:23:37.821Z,3.10
2022-10-10T03:26:09.568Z,7.27
2022-10-10T03:28:41.435Z,2.50
2022-10-10T03:31:13.179Z,2.73
2022-10-10T03:33:44.940Z,2.20
2022-10-10T03:36:16.973Z,2.50
2022-10-10T03:38:48.892Z,4.90
2022-10-10T03:41:20.672Z,3.53
2022-10-10T03:43:52.472Z,1.90
2022-10-10T03:46:24.176Z,1.90
2022-10-10T03:48:55.894Z,3.20
2022-10-10T03:51:27.611Z,2.00
2022-10-10T03:53:59.400Z,2.63
2022-10-10T03:56:31.350Z,2.10
2022-10-10T03:59:03.881Z,2.63
2022-10-10T04:01:35.646Z,2.07
2022-10-10T04:04:07.485Z,3.73
2022-10-10T04:06:39.354Z,2.67
2022-10-10T04:09:11.068Z,3.23
2022-10-10T04:11:43.457Z,1.97
2022-10-10T04:14:15.152Z,3.23
2022-10-10T04:16:46.883Z,4.37
2022-10-10T04:19:18.680Z,3.23
2022-10-10T04:21:50.928Z,2.83
2022-10-10T04:24:22.670Z,2.67
2022-10-10T04:26:54.536Z,3.83
2022-10-10T04:29:26.277Z,2.80
2022-10-10T04:31:58.016Z,4.53
2022-10-10T04:34:29.997Z,2.10
2022-10-10T04:37:01.850Z,2.77
2022-10-10T04:39:33.613Z,2.73
2022-10-10T04:42:05.473Z,4.93
2022-10-10T04:44:37.288Z,3.67
2022-10-10T04:47:09.007Z,4.03
2022-10-10T04:49:44.096Z,2.77
2022-10-10T04:52:16.174Z,2.40
2022-10-10T04:54:47.886Z,1.87
2022-10-10T04:57:19.606Z,11.87
2022-10-10T04:59:51.432Z,3.33
2022-10-10T05:02:23.241Z,3.00
2022-10-10T05:04:55.224Z,2.30
2022-10-10T05:07:26.973Z,2.13
2022-10-10T05:09:58.741Z,4.03
2022-10-10T05:12:30.484Z,2.97
2022-10-10T05:15:02.246Z,4.70
2022-10-10T05:17:33.982Z,3.83
2022-10-10T05:20:06.618Z,2.47
2022-10-10T05:22:38.309Z,4.40
2022-10-10T05:25:10.389Z,4.07
2022-10-10T05:27:42.171Z,2.57
2022-10-10T05:30:14.376Z,5.00
2022-10-10T05:32:46.178Z,2.43
2022-10-10T05:35:17.973Z,4.37
2022-10-10T05:37:49.689Z,2.93
2022-10-10T05:40:21.503Z,3.40
2022-10-10T05:42:53.402Z,3.37
2022-10-10T05:45:25.410Z,2.77
2022-10-10T05:47:57.125Z,2.63
2022-10-10T05:50:36.659Z,2.67
2022-10-10T05:53:08.421Z,3.50
2022-10-10T05:55:40.160Z,5.73
2022-10-10T05:58:13.435Z,4.13
2022-10-10T06:00:46.676Z,5.00
2022-10-10T06:03:18.461Z,3.07
2022-10-10T06:05:52.013Z,3.13
2022-10-10T06:08:23.825Z,3.90
2022-10-10T06:11:02.404Z,2.67
2022-10-10T06:13:34.406Z,5.63
2022-10-10T06:16:06.359Z,3.20
2022-10-10T06:18:38.221Z,4.40
2022-10-10T06:21:12.250Z,5.33
2022-10-10T06:23:44.727Z,3.77
2022-10-10T06:26:16.887Z,4.67
2022-10-10T06:28:50.732Z,6.73
2022-10-10T06:31:22.558Z,2.97
2022-10-10T06:33:54.276Z,3.47
2022-10-10T06:36:26.029Z,3.27
2022-10-10T06:38:57.754Z,6.03
2022-10-10T06:41:29.523Z,7.37
2022-10-10T06:44:01.308Z,4.40
2022-10-10T06:46:37.128Z,8.70
2022-10-10T06:49:09.070Z,7.00
2022-10-10T06:51:40.918Z,4.87
2022-10-10T06:54:12.953Z,4.30
2022-10-10T06:56:44.705Z,9.63
2022-10-10T06:59:16.456Z,2.80
2022-10-10T07:01:48.244Z,5.37
2022-10-10T07:04:20.071Z,5.90
2022-10-10T07:06:52.096Z,4.47
2022-10-10T07:09:23.839Z,4.77
2022-10-10T07:11:55.691Z,3.63
2022-10-10T07:14:27.599Z,3.10
2022-10-10T07:16:59.405Z,3.73
2022-10-10T07:19:31.127Z,4.07
2022-10-10T07:22:02.850Z,10.63
2022-10-10T07:24:34.595Z,6.30
2022-10-10T07:27:08.890Z,4.77
2022-10-10T07:29:41.449Z,5.13
2022-10-10T07:32:13.185Z,4.40
2022-10-10T07:34:44.905Z,3.50
2022-10-10T07:37:16.652Z,4.40
2022-10-10T07:39:48.433Z,5.33
2022-10-10T07:42:20.501Z,7.40
2022-10-10T07:44:52.287Z,13.17
2022-10-10T07:47:24.076Z,5.23
2022-10-10T07:49:55.829Z,5.30
2022-10-10T07:52:27.559Z,10.27
2022-10-10T07:54:59.331Z,6.67
2022-10-10T07:57:34.999Z,3.90
2022-10-10T08:00:09.196Z,7.50
2022-10-10T08:02:44.285Z,4.90
2022-10-10T08:05:16.164Z,6.57
2022-10-10T08:07:48.198Z,5.97
2022-10-10T08:10:20.638Z,5.03
2022-10-10T08:12:52.346Z,4.27
2022-10-10T08:15:24.138Z,3.37
2022-10-10T08:17:55.895Z,6.87
2022-10-10T08:20:27.607Z,6.83
2022-10-10T08:22:59.399Z,4.77
2022-10-10T08:25:31.157Z,7.83
2022-10-10T08:28:03.073Z,5.17
2022-10-10T08:30:34.850Z,8.70
2022-10-10T08:33:06.555Z,8.60
2022-10-10T08:35:41.500Z,9.97
2022-10-10T08:38:14.708Z,11.43
2022-10-10T08:40:49.643Z,9.13
2022-10-10T08:43:38.278Z,9.77
2022-10-10T08:46:26.598Z,11.33
2022-10-10T08:49:01.094Z,11.10
2022-10-10T08:51:33.665Z,13.90
2022-10-10T08:54:08.612Z,12.57
2022-10-10T08:56:42.180Z,8.40
2022-10-10T08:59:23.137Z,14.33
2022-10-10T09:02:17.821Z,7.73
2022-10-10T09:04:53.374Z,11.73
2022-10-10T09:07:30.929Z,13.77
2022-10-10T09:10:23.933Z,13.13
2022-10-10T09:13:12.844Z,12.13
2022-10-10T09:16:02.777Z,12.77
2022-10-10T09:18:54.792Z,11.70
2022-10-10T09:21:32.843Z,12.47
2022-10-10T09:24:16.187Z,11.70
2022-10-10T09:26:52.934Z,11.67
2022-10-10T09:29:43.729Z,14.60
2022-10-10T09:32:33.210Z,15.07
2022-10-10T09:35:20.696Z,11.43
2022-10-10T09:38:21.522Z,14.57
2022-10-10T09:41:07.722Z,10.63
2022-10-10T09:43:41.049Z,11.97
2022-10-10T09:46:12.828Z,9.90
2022-10-10T09:48:45.165Z,12.17
2022-10-10T09:51:18.279Z,23.83
2022-10-10T09:53:50.866Z,15.50
2022-10-10T09:56:40.168Z,12.80
2022-10-10T09:59:37.702Z,11.87
2022-10-10T10:02:21.981Z,12.47
2022-10-10T10:04:54.936Z,17.23
2022-10-10T10:07:29.720Z,9.30
2022-10-10T10:10:17.206Z,14.37
2022-10-10T10:12:49.524Z,14.37
2022-10-10T10:15:30.635Z,17.77
2022-10-10T10:18:17.707Z,14.20
2022-10-10T10:20:52.817Z,13.77
2022-10-10T10:23:41.264Z,12.77
2022-10-10T10:26:27.257Z,13.83
2022-10-10T10:28:59.260Z,17.80
2022-10-10T10:31:43.891Z,17.07
2022-10-10T10:34:33.957Z,15.50
2022-10-10T10:37:36.857Z,16.57
2022-10-10T10:40:53.807Z,16.20
2022-10-10T10:43:46.805Z,15.93
2022-10-10T10:46:31.957Z,24.50
2022-10-10T10:49:16.170Z,21.83
2022-10-10T10:52:13.681Z,25.03
2022-10-10T10:55:12.540Z,25.20
2022-10-10T10:58:10.473Z,25.90
2022-10-10T11:01:28.002Z,21.97
2022-10-10T11:05:19.929Z,24.60
2022-10-10T11:07:20.660Z,23.03
2022-10-10T11:10:15.880Z,22.30
2022-10-10T11:12:53.827Z,20.20
2022-10-10T11:16:01.471Z,21.93
2022-10-10T11:18:38.786Z,20.07
2022-10-10T11:21:24.767Z,28.60
2022-10-10T11:24:02.948Z,21.53
2022-10-10T11:26:42.007Z,22.63
2022-10-10T11:29:30.551Z,22.50
2022-10-10T11:32:13.841Z,19.77
2022-10-10T11:35:13.509Z,22.23
2022-10-10T11:37:52.786Z,20.23
2022-10-10T11:40:43.057Z,17.90
2022-10-10T11:43:52.995Z,23.77
2022-10-10T11:46:27.586Z,19.60
2022-10-10T11:49:29.652Z,19.70
2022-10-10T11:52:33.999Z,28.73
2022-10-10T11:55:33.008Z,19.37
2022-10-10T11:58:07.718Z,22.83
2022-10-10T12:01:03.830Z,20.13
2022-10-10T12:03:35.695Z,16.80
2022-10-10T12:06:38.262Z,16.17
2022-10-10T12:09:32.342Z,16.50
2022-10-10T12:12:29.477Z,18.07
2022-10-10T12:15:04.060Z,19.47
2022-10-10T12:17:44.358Z,17.30
2022-10-10T12:20:25.119Z,13.57
2022-10-10T12:23:21.211Z,24.40
2022-10-10T12:25:53.128Z,16.23
2022-10-10T12:28:34.565Z,14.37
2022-10-10T12:31:19.078Z,15.70
2022-10-10T12:33:53.419Z,18.13
2022-10-10T12:36:25.122Z,22.83
2022-10-10T12:39:10.355Z,19.33
2022-10-10T12:41:46.332Z,17.50
2022-10-10T12:44:25.870Z,15.97
2022-10-10T12:47:15.834Z,15.47
2022-10-10T12:49:55.503Z,16.20
2022-10-10T12:52:32.719Z,14.27
2022-10-10T12:55:27.214Z,13.03
2022-10-10T12:58:02.890Z,19.57
2022-10-10T13:00:41.434Z,13.10
2022-10-10T13:03:37.843Z,17.23
2022-10-10T13:06:27.735Z,12.67
2022-10-10T13:09:01.550Z,17.37
2022-10-10T13:11:33.272Z,12.80
2022-10-10T13:14:09.164Z,15.33
2022-10-10T13:16:44.397Z,14.37
2022-10-10T13:19:22.595Z,16.37
2022-10-10T13:21:55.971Z,26.07
2022-10-10T13:24:31.659Z,13.63
2022-10-10T13:27:03.546Z,15.97
2022-10-10T13:29:36.660Z,14.70
2022-10-10T13:32:15.961Z,18.27
2022-10-10T13:34:52.011Z,9.77
2022-10-10T13:37:25.021Z,10.67
2022-10-10T13:39:57.073Z,15.13
2022-10-10T13:42:37.636Z,9.60
2022-10-10T13:45:30.372Z,10.50
2022-10-10T13:48:02.357Z,13.50
2022-10-10T13:50:35.267Z,10.53
2022-10-10T13:53:28.984Z,8.77
2022-10-10T13:56:25.289Z,10.30
2022-10-10T13:59:05.915Z,16.30
2022-10-10T14:01:49.154Z,9.97
2022-10-10T14:04:47.057Z,12.27
2022-10-10T14:07:26.823Z,10.63
2022-10-10T14:10:10.197Z,12.03
2022-10-10T14:12:49.209Z,8.33
2022-10-10T14:15:42.381Z,7.60
2022-10-10T14:18:20.274Z,9.27
2022-10-10T14:20:56.196Z,12.37
2022-10-10T14:23:27.960Z,9.67
2022-10-10T14:25:59.743Z,10.80
2022-10-10T14:28:33.733Z,12.17
2022-10-10T14:31:06.034Z,8.90
2022-10-10T14:33:38.301Z,14.23
2022-10-10T14:36:11.770Z,11.50
2022-10-10T14:38:43.549Z,10.70
2022-10-10T14:41:15.294Z,9.60
2022-10-10T14:43:47.017Z,14.30
2022-10-10T14:46:19.969Z,10.13
2022-10-10T14:48:51.691Z,14.07
2022-10-10T14:51:34.751Z,8.67
2022-10-10T14:54:10.520Z,9.87
2022-10-10T14:57:07.532Z,8.80
2022-10-10T14:59:47.048Z,12.53
2022-10-10T15:02:21.807Z,9.13
2022-10-10T15:04:53.618Z,11.00
2022-10-10T15:07:25.424Z,11.97
2022-10-10T15:10:27.887Z,8.53
2022-10-10T15:12:49.742Z,10.87
2022-10-10T15:15:21.624Z,10.07
2022-10-10T15:17:53.340Z,8.40
2022-10-10T15:20:30.759Z,15.20
2022-10-10T15:23:07.395Z,10.97
2022-10-10T15:25:42.651Z,8.10
2022-10-10T15:28:14.528Z,7.67
2022-10-10T15:30:46.767Z,9.33
2022-10-10T15:33:18.494Z,9.03
2022-10-10T15:36:10.230Z,7.03
2022-10-10T15:38:42.256Z,8.47
2022-10-10T15:41:15.181Z,11.40
2022-10-10T15:43:54.276Z,11.53
2022-10-10T15:46:27.472Z,11.50
2022-10-10T15:49:02.924Z,7.47
2022-10-10T15:51:34.842Z,7.13
2022-10-10T15:54:06.620Z,9.37
2022-10-10T15:56:39.581Z,7.30
2022-10-10T15:59:13.377Z,9.03
2022-10-10T16:01:45.154Z,6.87
2022-10-10T16:04:16.938Z,6.60
2022-10-10T16:06:59.262Z,7.20
2022-10-10T16:09:37.510Z,7.63
2022-10-10T16:12:09.261Z,6.23
2022-10-10T16:14:40.964Z,6.87
2022-10-10T16:17:12.743Z,6.43
2022-10-10T16:19:44.463Z,19.30
2022-10-10T16:22:16.268Z,11.93
2022-10-10T16:25:10.241Z,9.70
2022-10-10T16:27:39.789Z,10.90
2022-10-10T16:30:12.080Z,11.80
2022-10-10T16:32:43.797Z,10.53
2022-10-10T16:35:15.696Z,9.20
2022-10-10T16:37:47.412Z,8.33
2022-10-10T16:40:19.176Z,7.70
2022-10-10T16:42:50.888Z,13.37
2022-10-10T16:45:22.670Z,10.23
2022-10-10T16:47:54.374Z,13.30
2022-10-10T16:50:26.084Z,17.87
2022-10-10T16:52:59.176Z,17.03
2022-10-10T16:55:30.924Z,17.50
2022-10-10T16:58:02.619Z,11.97
2022-10-10T17:00:34.393Z,13.43
2022-10-10T17:03:06.248Z,10.67
2022-10-10T17:05:37.968Z,10.17
2022-10-10T17:08:09.937Z,10.37
2022-10-10T17:10:44.042Z,9.80
2022-10-10T17:13:15.772Z,13.13
2022-10-10T17:15:47.508Z,10.23
2022-10-10T17:18:19.654Z,9.30
2022-10-10T17:20:51.429Z,11.80
2022-10-10T17:23:23.228Z,13.70
2022-10-10T17:25:54.963Z,11.30
2022-10-10T17:28:26.735Z,12.80
2022-10-10T17:30:58.530Z,11.73
2022-10-10T17:33:30.250Z,13.87
2022-10-10T17:36:07.374Z,11.83
2022-10-10T17:38:40.370Z,12.20
2022-10-10T17:41:13.826Z,13.23
2022-10-10T17:43:46.206Z,11.90
2022-10-10T17:46:34.358Z,10.47
2022-10-10T17:49:09.055Z,12.17
2022-10-10T17:51:41.300Z,10.83
2022-10-10T17:54:13.522Z,12.47
2022-10-10T17:56:45.569Z,9.93
2022-10-10T17:59:17.319Z,11.87
2022-10-10T18:01:49.106Z,12.83
2022-10-10T18:04:20.875Z,10.73
2022-10-10T18:06:53.812Z,14.07
2022-10-10T18:09:25.657Z,10.40
2022-10-10T18:11:57.454Z,10.60
2022-10-10T18:14:29.188Z,10.30
2022-10-10T18:17:00.919Z,11.53
2022-10-10T18:19:32.755Z,13.63
2022-10-10T18:22:04.829Z,12.03
2022-10-10T18:24:36.661Z,9.63
2022-10-10T18:27:08.497Z,13.53
2022-10-10T18:29:40.277Z,12.37
2022-10-10T18:32:12.020Z,13.30
2022-10-10T18:34:43.770Z,9.87
2022-10-10T18:37:15.518Z,13.50
2022-10-10T18:39:47.334Z,12.70
2022-10-10T18:42:19.131Z,15.27
2022-10-10T18:44:50.854Z,15.07
2022-10-10T18:47:22.570Z,12.03
2022-10-10T18:49:54.289Z,11.77
2022-10-10T18:52:28.739Z,12.23
2022-10-10T18:55:00.476Z,10.87
2022-10-10T18:57:33.918Z,11.17
2022-10-10T19:00:06.706Z,9.77
2022-10-10T19:02:38.423Z,11.80
2022-10-10T19:05:10.120Z,17.80
2022-10-10T19:07:41.930Z,11.10
2022-10-10T19:10:13.689Z,12.27
2022-10-10T19:12:47.439Z,12.97
2022-10-10T19:15:19.335Z,12.00
2022-10-10T19:17:51.069Z,17.73
2022-10-10T19:20:25.816Z,15.00
2022-10-10T19:23:00.837Z,16.10
2022-10-10T19:25:38.023Z,16.80
2022-10-10T19:28:09.961Z,21.90
2022-10-10T19:30:43.752Z,17.30
2022-10-10T19:33:15.526Z,21.27
2022-10-10T19:35:49.863Z,23.17
2022-10-10T19:38:24.081Z,22.43
2022-10-10T19:40:56.152Z,21.77
2022-10-10T19:43:27.921Z,24.03
2022-10-10T19:46:04.065Z,19.20
2022-10-10T19:48:37.021Z,21.73
2022-10-10T19:51:12.064Z,20.83
2022-10-10T19:53:45.072Z,20.70
2022-10-10T19:56:24.274Z,23.23
2022-10-10T19:58:58.610Z,17.10
2022-10-10T20:01:30.944Z,27.47
2022-10-10T20:04:02.903Z,21.37
2022-10-10T20:06:34.767Z,17.83
2022-10-10T20:09:10.659Z,18.43
2022-10-10T20:11:42.873Z,17.33
2022-10-10T20:14:14.584Z,17.93
2022-10-10T20:16:46.792Z,19.87
2022-10-10T20:19:18.684Z,21.97
2022-10-10T20:21:50.905Z,24.50
2022-10-10T20:24:22.682Z,19.47
2022-10-10T20:26:54.788Z,18.97
2022-10-10T20:29:26.585Z,15.67
2022-10-10T20:31:58.314Z,16.20
2022-10-10T20:34:30.046Z,20.53
2022-10-10T20:37:01.787Z,15.53
2022-10-10T20:39:33.529Z,18.17
2022-10-10T20:42:05.283Z,17.67
2022-10-10T20:44:37.283Z,16.63
2022-10-10T20:47:09.161Z,16.93
2022-10-10T20:49:40.942Z,17.03
2022-10-10T20:52:12.721Z,14.70
2022-10-10T20:54:44.482Z,14.27
2022-10-10T20:57:16.245Z,16.17
2022-10-10T20:59:48.076Z,16.33
2022-10-10T21:02:19.929Z,15.03
2022-10-10T21:04:51.719Z,15.47
2022-10-10T21:07:23.557Z,14.80
2022-10-10T21:09:55.359Z,19.00
2022-10-10T21:12:27.112Z,15.37
2022-10-10T21:15:02.359Z,14.97
2022-10-10T21:17:34.213Z,16.90
2022-10-10T21:20:07.087Z,16.03
2022-10-10T21:22:38.836Z,13.37
2022-10-10T21:25:12.259Z,15.33
2022-10-10T21:27:44.001Z,12.73
2022-10-10T21:30:15.736Z,15.33
2022-10-10T21:32:47.543Z,15.33
2022-10-10T21:35:19.343Z,10.20
2022-10-10T21:37:51.107Z,12.80
2022-10-10T21:40:22.848Z,11.60
2022-10-10T21:42:54.742Z,11.70
2022-10-10T21:45:26.545Z,14.77
2022-10-10T21:47:58.264Z,10.50
2022-10-10T21:50:30.098Z,11.23
2022-10-10T21:53:03.163Z,11.47
2022-10-10T21:55:38.467Z,10.70
2022-10-10T21:58:10.216Z,10.33
2022-10-10T22:00:41.955Z,13.50
2022-10-10T22:03:13.770Z,11.67
2022-10-10T22:05:45.497Z,13.87
2022-10-10T22:08:17.223Z,12.07
2022-10-10T22:10:49.026Z,12.43
2022-10-10T22:13:20.754Z,11.23
2022-10-10T22:15:52.712Z,10.53
2022-10-10T22:18:24.664Z,9.90
2022-10-10T22:20:57.160Z,12.70
2022-10-10T22:23:28.922Z,12.73
2022-10-10T22:26:00.887Z,10.07
2022-10-10T22:28:33.001Z,16.00
2022-10-10T22:31:09.514Z,11.77
2022-10-10T22:33:41.614Z,9.43
2022-10-10T22:36:13.345Z,14.63
2022-10-10T22:38:45.376Z,12.50
2022-10-10T22:41:17.085Z,16.13
2022-10-10T22:43:49.739Z,13.50
2022-10-10T22:46:21.782Z,12.43
2022-10-10T22:48:53.496Z,11.97
2022-10-10T22:51:25.469Z,11.40
2022-10-10T22:53:57.352Z,11.13
2022-10-10T22:56:29.096Z,9.00
2022-10-10T22:59:00.884Z,9.43
2022-10-10T23:01:32.660Z,13.27
2022-10-10T23:04:10.185Z,9.90
2022-10-10T23:06:41.976Z,13.73
2022-10-10T23:09:14.421Z,7.43
2022-10-10T23:11:46.137Z,9.10
2022-10-10T23:14:18.820Z,11.73
2022-10-10T23:16:50.662Z,10.17
2022-10-10T23:19:22.667Z,7.47
2022-10-10T23:21:54.520Z,9.97
2022-10-10T23:24:26.549Z,8.53
2022-10-10T23:26:58.271Z,8.10
2022-10-10T23:29:30.113Z,8.57
2022-10-10T23:32:02.126Z,9.23
2022-10-10T23:34:34.132Z,8.90
2022-10-10T23:37:05.841Z,10.67
2022-10-10T23:39:40.626Z,7.63
2022-10-10T23:42:12.493Z,7.00
2022-10-10T23:44:44.340Z,8.63
2022-10-10T23:47:16.303Z,8.13
2022-10-10T23:49:48.233Z,7.53
2022-10-10T23:52:20.457Z,11.47
2022-10-10T23:54:52.561Z,7.97
2022-10-10T23:57:24.474Z,12.13
2022-10-10T23:59:56.269Z,11.60
